Time;durP1;ratioP1;P1;durP2;ratioP2;P2;SDS_P1;SDS_P2;PMS_P1;PMS_P2;Temp;Humidity;BMP_temperature;BMP_pressure;BME280_temperature;BME280_humidity;BME280_pressure;Samples;Min_cycle;Max_cycle;Signal;HPM_P1;HPM_P2
2023/10/31 00:00:21;;;;;;;;;;;10.20;99.90;;;;;;5039844;28;20321;-94
2023/10/31 00:02:46;;;;;;;;;;;10.20;99.90;;;;;;5020455;28;19921;-95
2023/10/31 00:05:12;;;;;;;;;;;10.20;99.90;;;;;;5040999;28;19921;-94
2023/10/31 00:07:37;;;;;;;;;;;10.20;99.90;;;;;;5030433;28;19920;-95
2023/10/31 00:10:03;;;;;;;;;;;10.20;99.90;;;;;;5058922;28;20489;-91
2023/10/31 00:12:29;;;;;;;;;;;10.50;99.90;;;;;;5026238;28;19962;-94
2023/10/31 00:14:54;;;;;;;;;;;10.10;99.90;;;;;;5029329;28;20510;-90
2023/10/31 00:17:20;;;;;;;;;;;10.00;99.90;;;;;;5021575;28;19931;-92
2023/10/31 00:19:45;;;;;;;;;;;10.10;99.90;;;;;;5022746;28;19920;-93
2023/10/31 00:22:11;;;;;;;;;;;10.00;99.90;;;;;;5040083;28;19969;-92
2023/10/31 00:24:37;;;;;;;;;;;10.10;99.90;;;;;;5040862;28;19920;-90
2023/10/31 00:27:02;;;;;;;;;;;10.10;99.90;;;;;;5049150;28;20019;-89
2023/10/31 00:29:28;;;;;;;;;;;10.10;99.90;;;;;;5038721;28;19925;-89
2023/10/31 00:31:54;;;;;;;;;;;10.00;99.90;;;;;;5039505;28;20362;-90
2023/10/31 00:34:20;;;;;;;;;;;10.00;99.90;;;;;;5039038;28;19974;-91
2023/10/31 00:36:45;;;;;;;;;;;10.00;99.90;;;;;;5041050;28;19942;-93
2023/10/31 00:39:11;;;;;;;;;;;10.00;99.90;;;;;;5046188;28;20007;-93
2023/10/31 00:41:37;;;;;;;;;;;10.00;99.90;;;;;;5055289;28;19920;-91
2023/10/31 00:44:03;;;;;;;;;;;10.00;99.90;;;;;;5023664;28;20224;-95
2023/10/31 00:46:29;;;;;;;;;;;10.00;99.90;;;;;;5040822;28;19969;-93
2023/10/31 00:48:54;;;;;;;;;;;10.10;99.90;;;;;;5035587;28;19931;-90
2023/10/31 00:51:20;;;;;;;;;;;10.00;99.90;;;;;;5027534;28;19928;-92
2023/10/31 00:53:46;;;;;;;;;;;10.00;99.90;;;;;;5024413;28;19920;-86
2023/10/31 00:56:11;;;;;;;;;;;10.00;99.90;;;;;;5074390;28;19926;-93
2023/10/31 00:58:37;;;;;;;;;;;10.00;99.90;;;;;;5057723;28;19920;-92
2023/10/31 01:01:03;;;;;;;;;;;9.90;99.90;;;;;;5047325;28;19920;-94
2023/10/31 01:03:28;;;;;;;;;;;10.00;99.90;;;;;;5031276;28;19920;-89
2023/10/31 01:05:54;;;;;;;;;;;10.00;99.90;;;;;;5055998;28;19943;-93
2023/10/31 01:08:19;;;;;;;;;;;9.90;99.90;;;;;;5051896;28;20375;-92
2023/10/31 01:10:45;;;;;;;;;;;9.90;99.90;;;;;;5046041;28;20328;-92
2023/10/31 01:13:11;;;;;;;;;;;10.00;99.90;;;;;;5079789;28;19927;-89
2023/10/31 01:15:36;;;;;;;;;;;10.00;99.90;;;;;;5052008;28;19920;-88
2023/10/31 01:18:02;;;;;;;;;;;9.90;99.90;;;;;;5061848;28;19920;-86
2023/10/31 01:20:28;;;;;;;;;;;10.00;99.90;;;;;;5066794;28;20402;-88
2023/10/31 01:22:53;;;;;;;;;;;9.90;99.90;;;;;;5042090;28;19928;-86
2023/10/31 01:25:19;;;;;;;;;;;9.90;99.90;;;;;;5058026;28;19969;-89
2023/10/31 01:27:44;;;;;;;;;;;10.00;99.90;;;;;;5044776;28;19927;-87
2023/10/31 01:30:10;;;;;;;;;;;10.00;99.90;;;;;;5048517;28;19928;-87
2023/10/31 01:32:36;;;;;;;;;;;9.90;99.90;;;;;;5061993;28;19920;-88
2023/10/31 01:35:03;;;;;;;;;;;9.90;99.90;;;;;;5045930;28;19920;-91
2023/10/31 01:37:29;;;;;;;;;;;9.90;99.90;;;;;;5071792;28;20011;-93
2023/10/31 01:39:55;;;;;;;;;;;8.50;99.90;;;;;;5076605;28;20012;-88
2023/10/31 01:42:20;;;;;;;;;;;9.90;99.90;;;;;;5043968;28;19924;-92
2023/10/31 01:44:46;;;;;;;;;;;9.80;99.90;;;;;;5060199;28;19920;-90
2023/10/31 01:47:12;;;;;;;;;;;9.90;99.90;;;;;;5045332;28;19920;-90
2023/10/31 01:49:38;;;;;;;;;;;9.90;99.90;;;;;;5047765;28;19936;-90
2023/10/31 01:52:04;;;;;;;;;;;9.80;99.90;;;;;;5060885;28;19969;-91
2023/10/31 01:54:30;;;;;;;;;;;9.90;99.90;;;;;;5061713;28;19924;-92
2023/10/31 01:56:57;;;;;;;;;;;9.90;99.90;;;;;;5055732;28;19928;-93
2023/10/31 01:59:29;;;;;;;;;;;9.90;99.90;;;;;;5052589;28;19920;-88
2023/10/31 02:01:56;;;;;;;;;;;9.80;99.90;;;;;;5071437;28;19920;-87
2023/10/31 02:04:21;;;;;;;;;;;9.70;99.90;;;;;;5063354;28;19924;-86
2023/10/31 02:06:47;;;;;;;;;;;9.80;99.90;;;;;;5077525;28;19924;-91
2023/10/31 02:09:13;;;;;;;;;;;;;;;;;;5044711;28;19946;-92
2023/10/31 02:11:39;;;;;;;;;;;9.70;99.90;;;;;;5065481;28;19924;-92
2023/10/31 02:14:04;;;;;;;;;;;9.70;99.90;;;;;;5047461;28;19923;-94
2023/10/31 02:16:30;;;;;;;;;;;9.70;99.90;;;;;;5050141;28;19930;-89
2023/10/31 02:18:55;;;;;;;;;;;9.70;99.90;;;;;;5047762;28;20299;-89
2023/10/31 02:21:21;;;;;;;;;;;9.70;99.90;;;;;;5061399;28;19920;-90
2023/10/31 02:23:57;;;;;;;;;;;9.70;99.90;;;;;;5069077;28;19920;-88
2023/10/31 02:26:22;;;;;;;;;;;9.70;99.90;;;;;;5070446;28;19923;-90
2023/10/31 02:28:48;;;;;;;;;;;9.70;99.90;;;;;;5062939;28;19991;-87
2023/10/31 02:31:14;;;;;;;;;;;9.60;99.90;;;;;;5048309;28;20324;-89
2023/10/31 02:33:39;;;;;;;;;;;9.70;99.90;;;;;;5043451;28;19943;-87
2023/10/31 02:36:05;;;;;;;;;;;9.70;99.90;;;;;;5042612;28;19974;-87
2023/10/31 02:38:30;;;;;;;;;;;9.60;99.90;;;;;;5061238;28;19924;-88
2023/10/31 02:40:56;;;;;;;;;;;9.60;99.90;;;;;;5059495;28;19927;-91
2023/10/31 02:43:21;;;;;;;;;;;9.60;99.90;;;;;;5043097;28;19927;-88
2023/10/31 02:45:47;;;;;;;;;;;9.60;99.90;;;;;;5060248;28;19981;-89
2023/10/31 02:48:13;;;;;;;;;;;9.60;99.90;;;;;;5036465;28;19927;-88
2023/10/31 02:50:39;;;;;;;;;;;9.60;99.90;;;;;;5054432;28;19921;-88
2023/10/31 02:53:04;;;;;;;;;;;9.60;99.90;;;;;;5045172;28;19927;-91
2023/10/31 02:55:30;;;;;;;;;;;9.60;99.90;;;;;;5057071;28;20040;-92
2023/10/31 02:57:55;;;;;;;;;;;9.60;99.90;;;;;;5050162;28;19928;-92
2023/10/31 03:00:21;;;;;;;;;;;9.60;99.90;;;;;;5086348;28;19924;-95
2023/10/31 03:02:47;;;;;;;;;;;9.60;99.90;;;;;;5068936;28;19960;-89
2023/10/31 03:05:12;;;;;;;;;;;9.60;99.90;;;;;;5057181;28;19920;-89
2023/10/31 03:07:38;;;;;;;;;;;9.70;99.90;;;;;;5057911;28;19976;-92
2023/10/31 03:10:04;;;;;;;;;;;9.70;99.90;;;;;;5056581;28;19959;-88
2023/10/31 03:12:29;;;;;;;;;;;9.70;99.90;;;;;;5024226;28;19973;-89
2023/10/31 03:14:55;;;;;;;;;;;9.70;99.90;;;;;;5040474;28;19974;-93
2023/10/31 03:17:20;;;;;;;;;;;9.70;99.90;;;;;;5058458;28;19924;-92
2023/10/31 03:19:46;;;;;;;;;;;9.70;99.90;;;;;;5027492;28;19980;-93
2023/10/31 03:22:13;;;;;;;;;;;9.70;99.90;;;;;;5041140;28;19920;-96
2023/10/31 03:24:38;;;;;;;;;;;9.70;99.90;;;;;;5057935;28;20024;-91
2023/10/31 03:27:04;;;;;;;;;;;9.70;99.90;;;;;;5025734;28;19924;-90
2023/10/31 03:29:30;;;;;;;;;;;9.70;99.90;;;;;;5023766;28;19929;-88
2023/10/31 03:31:55;;;;;;;;;;;9.70;99.90;;;;;;5057628;28;19920;-89
2023/10/31 03:34:21;;;;;;;;;;;9.80;99.90;;;;;;5057230;28;19924;-89
2023/10/31 03:36:46;;;;;;;;;;;9.70;99.90;;;;;;5057027;28;19972;-91
2023/10/31 03:39:12;;;;;;;;;;;9.70;99.90;;;;;;5038943;28;19920;-87
2023/10/31 03:41:37;;;;;;;;;;;9.70;99.90;;;;;;5023376;28;19920;-95
2023/10/31 03:44:03;;;;;;;;;;;9.70;99.90;;;;;;5056447;28;19924;-91
2023/10/31 03:46:29;;;;;;;;;;;9.70;99.90;;;;;;5033312;28;19921;-87
2023/10/31 03:48:54;;;;;;;;;;;9.70;99.90;;;;;;5058878;28;20019;-93
2023/10/31 03:51:20;;;;;;;;;;;9.70;99.90;;;;;;5060322;28;19925;-94
2023/10/31 03:53:46;;;;;;;;;;;9.70;99.90;;;;;;5028022;28;19921;-89
2023/10/31 03:56:11;;;;;;;;;;;9.70;99.90;;;;;;5025170;28;19920;-91
2023/10/31 03:58:37;;;;;;;;;;;9.80;99.90;;;;;;5025102;28;19928;-94
2023/10/31 04:01:03;;;;;;;;;;;8.90;99.90;;;;;;5032337;28;19921;-89
2023/10/31 04:03:28;;;;;;;;;;;9.70;99.90;;;;;;5041181;28;20261;-95
2023/10/31 04:05:54;;;;;;;;;;;9.70;99.90;;;;;;5041097;28;19927;-90
2023/10/31 04:08:19;;;;;;;;;;;9.80;99.90;;;;;;5025735;28;19924;-94
2023/10/31 04:10:45;;;;;;;;;;;9.70;99.90;;;;;;5038246;28;19920;-93
2023/10/31 04:13:11;;;;;;;;;;;9.70;99.90;;;;;;5018207;28;19920;-90
2023/10/31 04:15:37;;;;;;;;;;;9.70;99.90;;;;;;5063442;28;19920;-89
2023/10/31 04:18:03;;;;;;;;;;;9.80;99.90;;;;;;5056240;28;19927;-90
2023/10/31 04:20:29;;;;;;;;;;;9.80;99.90;;;;;;5027880;28;19924;-93
2023/10/31 04:22:54;;;;;;;;;;;9.80;99.90;;;;;;5042382;28;20028;-90
2023/10/31 04:25:20;;;;;;;;;;;9.80;99.90;;;;;;5047636;28;19924;-96
2023/10/31 04:27:46;;;;;;;;;;;9.90;99.90;;;;;;5027769;28;20551;-92
2023/10/31 04:30:11;;;;;;;;;;;9.90;99.90;;;;;;5030032;28;20007;-91
2023/10/31 04:32:37;;;;;;;;;;;9.90;99.90;;;;;;5038069;28;19927;-92
2023/10/31 04:35:03;;;;;;;;;;;9.90;99.90;;;;;;5020039;28;19921;-87
2023/10/31 04:37:28;;;;;;;;;;;9.90;99.90;;;;;;5044908;28;19921;-91
2023/10/31 04:39:54;;;;;;;;;;;9.90;99.90;;;;;;5033941;28;19927;-92
2023/10/31 04:42:20;;;;;;;;;;;9.90;99.90;;;;;;5041572;28;20124;-95
2023/10/31 04:44:46;;;;;;;;;;;9.00;99.90;;;;;;5033467;28;19920;-96
2023/10/31 04:47:11;;;;;;;;;;;9.90;99.90;;;;;;5049978;28;19920;-91
2023/10/31 04:49:37;;;;;;;;;;;9.90;99.90;;;;;;5039585;28;20295;-94
2023/10/31 04:52:03;;;;;;;;;;;9.90;99.90;;;;;;5026034;28;19924;-88
2023/10/31 04:54:28;;;;;;;;;;;9.90;99.90;;;;;;5045958;28;19931;-90
2023/10/31 04:56:54;;;;;;;;;;;9.90;99.90;;;;;;5080276;28;19920;-94
2023/10/31 04:59:19;;;;;;;;;;;9.90;99.90;;;;;;5054445;28;19927;-94
2023/10/31 05:01:49;;;;;;;;;;;9.90;99.90;;;;;;5045422;28;19920;-94
2023/10/31 05:04:15;;;;;;;;;;;9.90;99.90;;;;;;5060268;28;19927;-94
2023/10/31 05:06:40;;;;;;;;;;;9.80;99.90;;;;;;5048587;28;19924;-95
2023/10/31 05:09:06;;;;;;;;;;;9.80;99.90;;;;;;5064042;28;20467;-96
2023/10/31 05:11:32;;;;;;;;;;;9.80;99.90;;;;;;5060652;28;20351;-93
2023/10/31 05:13:57;;;;;;;;;;;9.90;99.90;;;;;;5043037;28;19919;-93
2023/10/31 05:16:23;;;;;;;;;;;9.80;99.90;;;;;;5043012;28;19927;-94
2023/10/31 05:18:48;;;;;;;;;;;9.90;99.90;;;;;;5042798;28;19924;-91
2023/10/31 05:21:18;;;;;;;;;;;9.90;99.90;;;;;;5059317;28;19949;-92
2023/10/31 05:23:44;;;;;;;;;;;9.90;99.90;;;;;;5075984;28;20011;-90
2023/10/31 05:26:09;;;;;;;;;;;9.80;99.90;;;;;;5074175;28;20012;-92
2023/10/31 05:28:35;;;;;;;;;;;9.90;99.90;;;;;;5068919;28;19927;-91
2023/10/31 05:31:00;;;;;;;;;;;9.90;99.90;;;;;;5042259;28;19924;-90
2023/10/31 05:33:26;;;;;;;;;;;9.80;99.90;;;;;;5046081;28;20309;-91
2023/10/31 05:35:52;;;;;;;;;;;9.90;99.90;;;;;;5043141;28;19920;-89
2023/10/31 05:38:17;;;;;;;;;;;9.90;99.90;;;;;;5061748;28;19924;-89
2023/10/31 05:40:43;;;;;;;;;;;9.90;99.90;;;;;;5063317;28;20398;-89
2023/10/31 05:43:08;;;;;;;;;;;9.90;99.90;;;;;;5045596;28;20006;-94
2023/10/31 05:45:34;;;;;;;;;;;9.90;99.90;;;;;;5077963;28;19920;-91
2023/10/31 05:47:59;;;;;;;;;;;9.90;99.90;;;;;;5072777;28;19928;-93
2023/10/31 05:50:25;;;;;;;;;;;9.90;99.90;;;;;;5049827;28;19931;-91
2023/10/31 05:52:51;;;;;;;;;;;9.90;99.90;;;;;;5056212;28;20276;-91
2023/10/31 05:55:16;;;;;;;;;;;10.00;99.90;;;;;;5042492;28;19924;-93
2023/10/31 05:57:42;;;;;;;;;;;10.00;99.90;;;;;;5041216;28;19969;-93
2023/10/31 06:00:08;;;;;;;;;;;10.00;99.90;;;;;;5045706;28;20024;-94
2023/10/31 06:02:34;;;;;;;;;;;10.00;99.90;;;;;;5053428;28;19924;-91
2023/10/31 06:05:00;;;;;;;;;;;10.00;99.90;;;;;;5045737;28;19929;-92
2023/10/31 06:07:25;;;;;;;;;;;10.00;99.90;;;;;;5049222;28;20019;-94
2023/10/31 06:09:51;;;;;;;;;;;10.00;99.90;;;;;;5046271;28;19971;-93
2023/10/31 06:12:17;;;;;;;;;;;9.90;99.90;;;;;;5042668;28;19921;-92
2023/10/31 06:14:45;;;;;;;;;;;10.00;99.90;;;;;;5062396;28;19967;-92
2023/10/31 06:17:16;;;;;;;;;;;10.00;99.90;;;;;;5047446;28;19972;-93
2023/10/31 06:19:51;;;;;;;;;;;9.90;99.90;;;;;;5041497;28;19932;-90
2023/10/31 06:22:17;;;;;;;;;;;9.90;99.90;;;;;;5048794;28;19921;-92
2023/10/31 06:24:43;;;;;;;;;;;9.90;99.90;;;;;;5043513;28;19920;-93
2023/10/31 06:27:08;;;;;;;;;;;10.00;99.90;;;;;;5089652;28;19999;-95
2023/10/31 06:29:34;;;;;;;;;;;9.90;99.90;;;;;;5036940;28;19977;-94
2023/10/31 06:32:01;;;;;;;;;;;10.00;99.90;;;;;;5049835;28;20008;-91
2023/10/31 06:34:26;;;;;;;;;;;10.00;99.90;;;;;;5084443;28;20363;-94
2023/10/31 06:36:52;;;;;;;;;;;9.90;99.90;;;;;;5047447;28;19927;-93
2023/10/31 06:39:18;;;;;;;;;;;10.00;99.90;;;;;;5043671;28;19980;-92
2023/10/31 06:41:43;;;;;;;;;;;10.00;99.90;;;;;;5054357;28;19931;-88
2023/10/31 06:44:09;;;;;;;;;;;10.00;99.90;;;;;;5069747;28;19995;-88
2023/10/31 06:46:34;;;;;;;;;;;10.00;99.90;;;;;;5046559;28;19928;-90
2023/10/31 06:49:00;;;;;;;;;;;10.00;99.90;;;;;;5040384;28;19972;-91
2023/10/31 06:51:26;;;;;;;;;;;10.00;99.90;;;;;;5055254;28;20475;-91
2023/10/31 06:53:52;;;;;;;;;;;10.00;99.90;;;;;;5075939;28;19916;-91
2023/10/31 06:56:17;;;;;;;;;;;10.10;99.90;;;;;;5048434;28;19984;-93
2023/10/31 06:58:43;;;;;;;;;;;10.00;99.90;;;;;;5048316;28;20363;-93
2023/10/31 07:01:08;;;;;;;;;;;10.00;99.90;;;;;;5088387;28;19920;-93
2023/10/31 07:03:34;;;;;;;;;;;10.00;99.90;;;;;;5063196;28;20010;-93
2023/10/31 07:06:00;;;;;;;;;;;10.00;99.90;;;;;;5060326;28;20011;-91
2023/10/31 07:08:25;;;;;;;;;;;10.10;99.90;;;;;;5085315;28;19928;-91
2023/10/31 07:10:51;;;;;;;;;;;10.10;99.90;;;;;;5065324;28;19927;-91
2023/10/31 07:13:16;;;;;;;;;;;10.10;99.90;;;;;;5049640;28;20026;-91
2023/10/31 07:15:42;;;;;;;;;;;10.10;99.90;;;;;;5053036;28;20010;-90
2023/10/31 07:18:07;;;;;;;;;;;10.10;99.90;;;;;;5041703;28;19920;-93
2023/10/31 07:20:33;;;;;;;;;;;10.20;99.90;;;;;;5060172;28;19928;-91
2023/10/31 07:22:59;;;;;;;;;;;10.10;99.90;;;;;;5077460;28;20391;-91
2023/10/31 07:25:24;;;;;;;;;;;10.10;99.90;;;;;;5079787;28;19923;-91
2023/10/31 07:27:50;;;;;;;;;;;10.20;99.90;;;;;;5043577;28;19928;-91
2023/10/31 07:30:15;;;;;;;;;;;10.10;99.90;;;;;;5050090;28;19924;-91
2023/10/31 07:32:41;;;;;;;;;;;10.20;99.90;;;;;;5061802;28;19920;-92
2023/10/31 07:35:07;;;;;;;;;;;10.20;99.90;;;;;;5048519;28;19967;-90
2023/10/31 07:37:32;;;;;;;;;;;10.20;99.90;;;;;;5060478;28;19924;-91
2023/10/31 07:39:58;;;;;;;;;;;10.20;99.90;;;;;;5045370;28;19927;-91
2023/10/31 07:42:23;;;;;;;;;;;10.20;99.90;;;;;;5060027;28;19977;-92
2023/10/31 07:44:50;;;;;;;;;;;10.20;99.90;;;;;;5058057;28;19920;-91
2023/10/31 07:47:16;;;;;;;;;;;10.20;99.90;;;;;;5043410;28;19924;-90
2023/10/31 07:49:41;;;;;;;;;;;10.30;99.90;;;;;;5043046;28;19924;-87
2023/10/31 07:52:07;;;;;;;;;;;10.30;99.90;;;;;;5046329;28;19927;-91
2023/10/31 07:54:33;;;;;;;;;;;10.30;99.90;;;;;;5061247;28;19924;-93
2023/10/31 07:56:58;;;;;;;;;;;10.30;99.90;;;;;;5059571;28;19943;-91
2023/10/31 07:59:24;;;;;;;;;;;10.30;99.90;;;;;;5062235;28;20279;-89
2023/10/31 08:01:52;;;;;;;;;;;10.30;99.90;;;;;;5045805;28;19924;-88
2023/10/31 08:04:17;;;;;;;;;;;10.40;99.90;;;;;;5060949;28;20010;-89
2023/10/31 08:06:43;;;;;;;;;;;10.40;99.90;;;;;;5061944;28;20246;-89
2023/10/31 08:09:09;;;;;;;;;;;10.50;99.90;;;;;;5056579;28;20393;-94
2023/10/31 08:11:35;;;;;;;;;;;10.50;99.90;;;;;;5039136;28;20024;-88
2023/10/31 08:14:01;;;;;;;;;;;10.50;99.90;;;;;;5041006;28;19928;-89
2023/10/31 08:16:27;;;;;;;;;;;10.60;99.90;;;;;;5043113;28;20003;-88
2023/10/31 08:18:53;;;;;;;;;;;10.60;99.90;;;;;;5055905;28;19924;-86
2023/10/31 08:21:19;;;;;;;;;;;10.90;99.90;;;;;;5044236;28;19927;-88
2023/10/31 08:23:46;;;;;;;;;;;10.70;99.90;;;;;;5037313;28;19978;-89
2023/10/31 08:26:12;;;;;;;;;;;10.70;99.90;;;;;;5074244;28;19978;-89
2023/10/31 08:28:38;;;;;;;;;;;10.80;99.90;;;;;;5057120;28;20029;-85
2023/10/31 08:31:04;;;;;;;;;;;10.80;99.90;;;;;;5057238;28;20275;-88
2023/10/31 08:33:30;;;;;;;;;;;10.90;99.90;;;;;;5056758;28;20264;-90
2023/10/31 08:35:55;;;;;;;;;;;10.90;99.90;;;;;;5065983;28;20012;-87
2023/10/31 08:38:21;;;;;;;;;;;11.00;99.90;;;;;;5073457;28;19970;-85
2023/10/31 08:40:47;;;;;;;;;;;11.00;99.90;;;;;;5059193;28;19967;-88
2023/10/31 08:43:12;;;;;;;;;;;11.00;99.90;;;;;;5040944;28;19927;-88
2023/10/31 08:45:38;;;;;;;;;;;11.10;99.90;;;;;;5057223;28;19920;-89
2023/10/31 08:48:04;;;;;;;;;;;11.10;99.90;;;;;;5042581;28;19924;-86
2023/10/31 08:50:29;;;;;;;;;;;11.20;99.90;;;;;;5060620;28;19928;-92
2023/10/31 08:52:55;;;;;;;;;;;11.30;99.90;;;;;;5040771;28;20012;-88
2023/10/31 08:55:21;;;;;;;;;;;11.30;99.90;;;;;;5046595;28;19928;-93
2023/10/31 08:57:46;;;;;;;;;;;11.40;99.90;;;;;;5077198;28;19920;-87
2023/10/31 09:00:13;;;;;;;;;;;;;;;;;;5052031;28;19920;-88
2023/10/31 09:02:38;;;;;;;;;;;11.50;99.90;;;;;;5057111;28;19935;-88
2023/10/31 09:05:04;;;;;;;;;;;11.20;99.90;;;;;;5059229;28;19920;-88
2023/10/31 09:07:30;;;;;;;;;;;11.20;99.90;;;;;;5057893;28;19988;-89
2023/10/31 09:09:55;;;;;;;;;;;11.00;99.90;;;;;;5040564;28;19951;-90
2023/10/31 09:12:21;;;;;;;;;;;11.00;99.90;;;;;;5042773;28;20011;-87
2023/10/31 09:14:47;;;;;;;;;;;11.00;99.90;;;;;;5062296;28;19920;-88
2023/10/31 09:17:12;;;;;;;;;;;10.90;99.90;;;;;;5059706;28;19924;-88
2023/10/31 09:19:38;;;;;;;;;;;10.80;99.90;;;;;;5061701;28;20581;-90
2023/10/31 09:22:03;;;;;;;;;;;10.70;99.90;;;;;;5049506;28;19969;-88
2023/10/31 09:24:29;;;;;;;;;;;10.70;99.90;;;;;;5060181;28;19981;-91
2023/10/31 09:26:55;;;;;;;;;;;10.70;99.90;;;;;;5077712;28;19930;-88
2023/10/31 09:29:20;;;;;;;;;;;10.60;99.90;;;;;;5043768;28;19932;-89
2023/10/31 09:31:47;;;;;;;;;;;10.60;99.90;;;;;;5061122;28;19970;-91
2023/10/31 09:34:13;;;;;;;;;;;10.60;99.90;;;;;;5053806;28;20428;-88
2023/10/31 09:36:39;;;;;;;;;;;10.60;99.90;;;;;;5063463;28;19920;-90
2023/10/31 09:39:05;;;;;;;;;;;10.60;99.90;;;;;;5062928;28;20342;-91
2023/10/31 09:41:32;;;;;;;;;;;10.60;99.90;;;;;;5044399;28;19979;-92
2023/10/31 09:43:58;;;;;;;;;;;10.50;99.90;;;;;;5044703;28;19920;-88
2023/10/31 09:46:23;;;;;;;;;;;10.50;99.90;;;;;;5084596;28;19920;-91
2023/10/31 09:48:50;;;;;;;;;;;10.40;99.90;;;;;;5042973;28;19925;-92
2023/10/31 09:51:15;;;;;;;;;;;10.50;99.90;;;;;;5070492;28;19963;-89
2023/10/31 09:53:44;;;;;;;;;;;10.60;99.90;;;;;;5077479;28;20259;-89
2023/10/31 09:56:09;;;;;;;;;;;10.70;99.90;;;;;;5060870;28;20329;-88
2023/10/31 09:58:35;;;;;;;;;;;10.70;99.90;;;;;;5061103;28;20007;-91
2023/10/31 10:01:01;;;;;;;;;;;10.80;99.90;;;;;;5062624;28;20379;-86
2023/10/31 10:03:27;;;;;;;;;;;10.80;99.90;;;;;;5044867;28;20404;-91
2023/10/31 10:05:52;;;;;;;;;;;10.80;99.90;;;;;;5038641;28;19963;-85
2023/10/31 10:08:19;;;;;;;;;;;10.80;99.90;;;;;;5043617;28;19920;-88
2023/10/31 10:10:45;;;;;;;;;;;10.80;99.90;;;;;;5077208;28;19959;-88
2023/10/31 10:13:12;;;;;;;;;;;10.80;99.90;;;;;;5077258;28;19984;-90
2023/10/31 10:15:49;;;;;;;;;;;10.80;99.90;;;;;;5041028;28;20054;-87
2023/10/31 10:18:35;;;;;;;;;;;10.90;99.90;;;;;;5039468;28;19920;-83
2023/10/31 10:21:04;;;;;;;;;;;10.90;99.90;;;;;;5060578;28;19971;-86
2023/10/31 10:23:30;;;;;;;;;;;11.00;99.90;;;;;;5069109;28;20367;-89
2023/10/31 10:25:56;;;;;;;;;;;11.10;99.90;;;;;;5093130;28;19930;-92
2023/10/31 10:28:24;;;;;;;;;;;11.00;99.90;;;;;;5042905;28;19920;-84
2023/10/31 10:30:50;;;;;;;;;;;11.00;99.90;;;;;;5073332;28;19927;-85
2023/10/31 10:33:16;;;;;;;;;;;11.00;99.90;;;;;;5059226;28;20011;-86
2023/10/31 10:35:42;;;;;;;;;;;11.00;99.90;;;;;;5061153;28;20363;-84
2023/10/31 10:38:13;;;;;;;;;;;11.00;99.90;;;;;;5043811;28;19926;-84
2023/10/31 10:40:42;;;;;;;;;;;11.00;99.90;;;;;;5075901;28;20100;-86
2023/10/31 10:43:20;;;;;;;;;;;10.90;99.90;;;;;;5043226;28;19968;-88
2023/10/31 10:45:45;;;;;;;;;;;11.00;99.90;;;;;;5075379;28;19928;-90
2023/10/31 10:48:15;;;;;;;;;;;11.10;99.90;;;;;;5058829;28;19920;-84
2023/10/31 10:50:45;;;;;;;;;;;11.10;99.90;;;;;;5059598;28;19935;-85
2023/10/31 10:53:31;;;;;;;;;;;11.10;99.90;;;;;;5059962;28;19931;-84
2023/10/31 10:56:00;;;;;;;;;;;11.10;99.90;;;;;;5064401;28;19931;-86
2023/10/31 10:59:05;;;;;;;;;;;11.30;99.90;;;;;;5059483;28;19971;-82
2023/10/31 11:01:30;;;;;;;;;;;11.20;99.90;;;;;;5034758;28;19980;-83
2023/10/31 11:03:56;;;;;;;;;;;11.10;99.90;;;;;;5034414;28;20004;-84
2023/10/31 11:06:22;;;;;;;;;;;11.10;99.90;;;;;;5020285;28;20325;-84
2023/10/31 11:08:49;;;;;;;;;;;11.00;99.90;;;;;;5058056;28;19931;-83
2023/10/31 11:11:17;;;;;;;;;;;11.00;99.90;;;;;;5060770;28;19920;-84
2023/10/31 11:13:43;;;;;;;;;;;11.10;99.90;;;;;;5058282;28;20451;-84
2023/10/31 11:16:13;;;;;;;;;;;11.20;99.90;;;;;;5075243;28;19927;-83
2023/10/31 11:18:39;;;;;;;;;;;11.20;99.90;;;;;;5060817;28;20550;-84
2023/10/31 11:21:04;;;;;;;;;;;11.20;99.90;;;;;;5060416;28;19920;-84
2023/10/31 11:23:30;;;;;;;;;;;11.10;99.90;;;;;;5057747;28;19974;-83
2023/10/31 11:25:55;;;;;;;;;;;11.20;99.90;;;;;;5066410;28;20035;-82
2023/10/31 11:28:21;;;;;;;;;;;11.20;99.90;;;;;;5057654;28;19969;-85
2023/10/31 11:30:50;;;;;;;;;;;11.20;99.90;;;;;;5077072;28;19931;-84
2023/10/31 11:33:18;;;;;;;;;;;11.30;99.90;;;;;;5060744;28;19962;-86
2023/10/31 11:35:49;;;;;;;;;;;11.30;99.90;;;;;;5078218;28;19920;-84
2023/10/31 11:38:14;;;;;;;;;;;11.30;99.90;;;;;;5069012;28;19920;-84
2023/10/31 11:40:59;;;;;;;;;;;11.30;99.90;;;;;;5058762;28;20370;-83
2023/10/31 11:43:25;;;;;;;;;;;11.40;99.90;;;;;;5057722;28;20007;-85
2023/10/31 11:45:51;;;;;;;;;;;11.30;99.90;;;;;;5057600;28;20014;-83
2023/10/31 11:48:17;;;;;;;;;;;11.20;99.90;;;;;;5073637;28;19943;-84
2023/10/31 11:50:43;;;;;;;;;;;11.30;99.90;;;;;;5044685;28;19924;-82
2023/10/31 11:53:13;;;;;;;;;;;11.20;99.90;;;;;;5060114;28;19927;-83
2023/10/31 11:55:46;;;;;;;;;;;11.20;99.90;;;;;;5076718;28;19924;-82
2023/10/31 11:58:19;;;;;;;;;;;11.20;99.90;;;;;;5057189;28;19920;-84
2023/10/31 12:00:49;;;;;;;;;;;11.20;99.90;;;;;;5058879;28;19924;-83
2023/10/31 12:03:19;;;;;;;;;;;11.20;99.90;;;;;;5062692;28;20018;-82
2023/10/31 12:05:52;;;;;;;;;;;11.10;99.90;;;;;;5068609;28;19920;-83
2023/10/31 12:08:27;;;;;;;;;;;11.10;99.90;;;;;;5090057;28;19969;-83
2023/10/31 12:10:53;;;;;;;;;;;11.00;99.90;;;;;;5067897;28;19970;-82
2023/10/31 12:13:19;;;;;;;;;;;11.00;99.90;;;;;;5068729;28;19963;-84
2023/10/31 12:15:51;;;;;;;;;;;10.20;99.90;;;;;;5062902;28;20294;-85
2023/10/31 12:18:17;;;;;;;;;;;10.30;99.90;;;;;;5085507;28;19965;-84
2023/10/31 12:20:47;;;;;;;;;;;11.00;99.90;;;;;;5058602;28;19968;-83
2023/10/31 12:23:13;;;;;;;;;;;11.00;99.90;;;;;;5060920;28;19958;-85
2023/10/31 12:25:45;;;;;;;;;;;11.00;99.90;;;;;;5074037;28;20007;-83
2023/10/31 12:28:16;;;;;;;;;;;11.00;99.90;;;;;;5058121;28;20395;-84
2023/10/31 12:30:49;;;;;;;;;;;11.10;99.90;;;;;;5059652;28;19993;-83
2023/10/31 12:33:15;;;;;;;;;;;11.00;99.90;;;;;;5064643;28;20283;-83
2023/10/31 12:35:41;;;;;;;;;;;11.00;99.90;;;;;;5041848;28;19924;-84
2023/10/31 12:38:09;;;;;;;;;;;11.00;99.90;;;;;;5073591;28;19927;-82
2023/10/31 12:40:35;;;;;;;;;;;10.90;99.90;;;;;;5057281;28;19927;-88
2023/10/31 12:43:03;;;;;;;;;;;10.80;99.90;;;;;;5055970;28;19924;-83
2023/10/31 12:45:28;;;;;;;;;;;10.70;99.90;;;;;;5075849;28;19920;-86
2023/10/31 12:48:02;;;;;;;;;;;10.70;99.90;;;;;;5060055;28;19920;-85
2023/10/31 12:50:28;;;;;;;;;;;10.60;99.90;;;;;;5061625;28;19932;-87
2023/10/31 12:52:54;;;;;;;;;;;10.60;99.90;;;;;;5060811;28;20370;-87
2023/10/31 12:55:39;;;;;;;;;;;10.60;99.90;;;;;;5060114;28;19928;-86
2023/10/31 12:58:05;;;;;;;;;;;10.60;99.90;;;;;;5059601;28;20011;-82
2023/10/31 13:00:34;;;;;;;;;;;10.50;99.90;;;;;;5077628;28;20053;-84
2023/10/31 13:03:03;;;;;;;;;;;10.50;99.90;;;;;;5059759;28;19924;-83
2023/10/31 13:05:29;;;;;;;;;;;;;;;;;;5078401;28;20293;-84
2023/10/31 13:07:56;;;;;;;;;;;10.40;99.90;;;;;;5061287;28;19924;-84
2023/10/31 13:10:23;;;;;;;;;;;10.40;99.90;;;;;;5076141;28;20049;-83
2023/10/31 13:12:49;;;;;;;;;;;10.30;99.90;;;;;;5058946;28;19920;-83
2023/10/31 13:15:15;;;;;;;;;;;10.30;99.90;;;;;;5041587;28;19923;-83
2023/10/31 13:17:42;;;;;;;;;;;10.20;99.90;;;;;;5066612;28;19994;-84
2023/10/31 13:20:12;;;;;;;;;;;10.20;99.90;;;;;;5058997;28;19920;-83
2023/10/31 13:22:38;;;;;;;;;;;10.20;99.90;;;;;;5082078;28;19967;-83
2023/10/31 13:25:05;;;;;;;;;;;10.20;99.90;;;;;;5054166;28;19930;-83
2023/10/31 13:27:33;;;;;;;;;;;10.10;99.90;;;;;;5059775;28;19928;-85
2023/10/31 13:29:59;;;;;;;;;;;10.10;99.90;;;;;;5080856;28;19924;-83
2023/10/31 13:32:24;;;;;;;;;;;10.10;99.90;;;;;;5037740;28;19927;-84
2023/10/31 13:34:50;;;;;;;;;;;10.10;99.90;;;;;;5056615;28;20018;-82
2023/10/31 13:37:15;;;;;;;;;;;10.10;99.90;;;;;;5047756;28;20324;-83
2023/10/31 13:39:41;;;;;;;;;;;10.10;99.90;;;;;;5043845;28;20010;-84
2023/10/31 13:42:07;;;;;;;;;;;10.10;99.90;;;;;;5051659;28;19924;-84
2023/10/31 13:44:33;;;;;;;;;;;10.00;99.90;;;;;;5067305;28;19923;-85
2023/10/31 13:46:59;;;;;;;;;;;10.10;99.90;;;;;;5049276;28;20240;-86
2023/10/31 13:49:24;;;;;;;;;;;10.00;99.90;;;;;;5068284;28;19931;-86
2023/10/31 13:51:50;;;;;;;;;;;10.10;99.90;;;;;;5064481;28;20529;-85
2023/10/31 13:54:15;;;;;;;;;;;10.10;99.90;;;;;;5036571;28;19928;-85
2023/10/31 13:56:41;;;;;;;;;;;10.00;99.90;;;;;;5063981;28;19920;-85
2023/10/31 13:59:06;;;;;;;;;;;10.00;99.90;;;;;;5052591;28;19920;-85
2023/10/31 14:01:32;;;;;;;;;;;10.10;99.90;;;;;;5052772;28;20384;-86
2023/10/31 14:03:58;;;;;;;;;;;10.10;99.90;;;;;;5035795;28;20008;-84
2023/10/31 14:06:29;;;;;;;;;;;10.10;99.90;;;;;;5029618;28;20054;-85
2023/10/31 14:08:55;;;;;;;;;;;10.10;99.90;;;;;;5035856;28;19928;-86
2023/10/31 14:11:21;;;;;;;;;;;10.20;99.90;;;;;;5045304;28;19933;-84
2023/10/31 14:13:47;;;;;;;;;;;10.20;99.90;;;;;;5035543;28;19925;-85
2023/10/31 14:16:14;;;;;;;;;;;10.20;99.90;;;;;;5052226;28;19927;-86
2023/10/31 14:18:40;;;;;;;;;;;10.20;99.90;;;;;;5050281;28;20249;-85